createdAt,value
2019-05-21T00:00:30.390Z,15.60
2019-05-21T00:02:59.098Z,15.60
2019-05-21T00:05:27.682Z,15.60
2019-05-21T00:07:56.247Z,15.50
2019-05-21T00:10:24.840Z,15.50
2019-05-21T00:12:53.471Z,15.50
2019-05-21T00:15:22.139Z,15.50
2019-05-21T00:17:50.750Z,15.50
2019-05-21T00:20:19.570Z,15.50
2019-05-21T00:22:48.131Z,15.40
2019-05-21T00:25:17.463Z,15.40
2019-05-21T00:27:46.243Z,15.40
2019-05-21T00:30:51.515Z,15.40
2019-05-21T00:33:56.687Z,15.40
2019-05-21T00:37:01.759Z,15.40
2019-05-21T00:40:06.494Z,15.30
2019-05-21T00:42:38.168Z,15.30
2019-05-21T00:45:11.854Z,15.20
2019-05-21T00:47:40.600Z,15.10
2019-05-21T00:50:10.468Z,15.10
2019-05-21T00:52:39.143Z,15.10
2019-05-21T00:55:07.767Z,15.10
2019-05-21T00:57:36.358Z,15.10
2019-05-21T01:00:06.892Z,15.00
2019-05-21T01:02:35.620Z,15.00
2019-05-21T01:05:05.023Z,15.00
2019-05-21T01:07:33.623Z,15.00
2019-05-21T01:10:02.443Z,15.00
2019-05-21T01:12:31.205Z,15.00
2019-05-21T01:14:59.770Z,14.90
2019-05-21T01:17:28.359Z,14.90
2019-05-21T01:19:56.923Z,14.90
2019-05-21T01:22:25.510Z,14.90
2019-05-21T01:24:54.082Z,14.90
2019-05-21T01:27:22.671Z,14.80
2019-05-21T01:29:51.248Z,14.80
2019-05-21T01:32:19.822Z,14.80
2019-05-21T01:34:48.386Z,14.80
2019-05-21T01:37:17.065Z,14.70
2019-05-21T01:39:45.613Z,14.70
2019-05-21T01:42:14.204Z,14.70
2019-05-21T01:44:42.766Z,14.70
2019-05-21T01:47:11.364Z,14.70
2019-05-21T01:49:39.929Z,14.60
2019-05-21T01:52:08.515Z,14.60
2019-05-21T01:54:37.092Z,14.60
2019-05-21T01:57:05.672Z,14.60
2019-05-21T01:59:34.246Z,14.60
2019-05-21T02:02:02.840Z,14.50
2019-05-21T02:04:31.400Z,14.50
2019-05-21T02:07:00.174Z,14.40
2019-05-21T02:09:29.095Z,14.40
2019-05-21T02:11:57.725Z,14.40
2019-05-21T02:14:26.265Z,14.40
2019-05-21T02:16:54.814Z,14.30
2019-05-21T02:19:23.398Z,14.30
2019-05-21T02:21:51.972Z,14.30
2019-05-21T02:24:20.560Z,14.30
2019-05-21T02:26:49.126Z,14.20
2019-05-21T02:29:17.787Z,14.20
2019-05-21T02:31:46.361Z,14.20
2019-05-21T02:34:14.960Z,14.20
2019-05-21T02:36:43.592Z,14.20
2019-05-21T02:39:12.187Z,14.20
2019-05-21T02:41:40.750Z,14.20
2019-05-21T02:44:10.115Z,14.10
2019-05-21T02:46:38.696Z,14.10
2019-05-21T02:49:07.281Z,14.10
2019-05-21T02:51:35.863Z,14.10
2019-05-21T02:54:04.523Z,14.10
2019-05-21T02:56:33.068Z,14.10
2019-05-21T02:59:01.660Z,14.20
2019-05-21T03:01:38.017Z,14.20
2019-05-21T03:04:06.663Z,14.20
2019-05-21T03:06:35.303Z,14.20
2019-05-21T03:09:05.430Z,14.20
2019-05-21T03:11:34.240Z,14.20
2019-05-21T03:14:02.837Z,14.20
2019-05-21T03:16:31.399Z,14.20
2019-05-21T03:18:59.983Z,14.20
2019-05-21T03:21:28.546Z,14.20
2019-05-21T03:23:57.137Z,14.20
2019-05-21T03:26:25.704Z,14.10
2019-05-21T03:28:54.300Z,14.10
2019-05-21T03:31:22.920Z,14.10
2019-05-21T03:33:51.509Z,14.10
2019-05-21T03:36:32.694Z,14.10
2019-05-21T03:38:50.317Z,14.10
2019-05-21T03:41:18.885Z,14.00
2019-05-21T03:43:47.556Z,14.10
2019-05-21T03:46:16.100Z,14.10
2019-05-21T03:48:45.055Z,14.10
2019-05-21T03:51:13.645Z,14.00
2019-05-21T03:53:42.208Z,14.00
2019-05-21T03:56:10.772Z,14.00
2019-05-21T03:58:39.359Z,14.00
2019-05-21T04:01:07.956Z,14.00
2019-05-21T04:03:36.498Z,14.00
2019-05-21T04:06:05.108Z,14.00
2019-05-21T04:08:33.744Z,13.90
2019-05-21T04:11:02.330Z,14.00
2019-05-21T04:13:30.896Z,13.90
2019-05-21T04:16:03.834Z,14.00
2019-05-21T04:18:34.039Z,14.00
2019-05-21T04:21:02.628Z,14.10
2019-05-21T04:23:31.193Z,14.00
2019-05-21T04:25:59.788Z,14.00
2019-05-21T04:28:28.353Z,14.00
2019-05-21T04:30:56.988Z,13.90
2019-05-21T04:33:25.547Z,13.90
2019-05-21T04:35:54.139Z,13.90
2019-05-21T04:38:22.711Z,13.90
2019-05-21T04:40:51.299Z,13.90
2019-05-21T04:43:19.867Z,13.90
2019-05-21T04:45:48.534Z,13.90
2019-05-21T04:48:17.105Z,13.90
2019-05-21T04:50:45.729Z,13.90
2019-05-21T04:53:14.254Z,13.90
2019-05-21T04:55:42.879Z,13.90
2019-05-21T04:58:11.603Z,13.90
2019-05-21T05:00:40.383Z,13.90
2019-05-21T05:03:08.956Z,13.90
2019-05-21T05:05:38.002Z,13.90
2019-05-21T05:08:06.623Z,13.90
2019-05-21T05:10:35.215Z,13.90
2019-05-21T05:13:03.783Z,14.00
2019-05-21T05:15:32.368Z,14.00
2019-05-21T05:18:00.952Z,14.00
2019-05-21T05:20:29.552Z,14.00
2019-05-21T05:22:58.115Z,14.00
2019-05-21T05:25:26.707Z,14.00
2019-05-21T05:27:55.281Z,14.10
2019-05-21T05:30:23.947Z,14.00
2019-05-21T05:32:52.514Z,14.00
2019-05-21T05:35:21.107Z,14.10
2019-05-21T05:37:49.670Z,14.10
2019-05-21T05:40:19.697Z,14.10
2019-05-21T05:42:48.288Z,14.10
2019-05-21T05:45:17.086Z,14.20
2019-05-21T05:47:45.652Z,14.20
2019-05-21T05:50:19.093Z,14.30
2019-05-21T05:52:47.648Z,14.30
2019-05-21T05:55:16.283Z,14.30
2019-05-21T05:57:44.947Z,14.40
2019-05-21T06:00:14.424Z,14.40
2019-05-21T06:02:43.031Z,14.40
2019-05-21T06:05:11.806Z,14.50
2019-05-21T06:07:40.403Z,14.50
2019-05-21T06:10:09.032Z,14.50
2019-05-21T06:12:37.617Z,14.50
2019-05-21T06:15:07.997Z,14.50
2019-05-21T06:17:36.583Z,14.50
2019-05-21T06:20:07.188Z,14.50
2019-05-21T06:22:35.780Z,14.50
2019-05-21T06:25:06.068Z,14.50
2019-05-21T06:27:34.703Z,14.50
2019-05-21T06:30:05.316Z,14.50
2019-05-21T06:32:33.921Z,14.50
2019-05-21T06:35:02.484Z,14.50
2019-05-21T06:37:31.074Z,14.50
2019-05-21T06:39:59.635Z,14.50
2019-05-21T06:42:28.223Z,14.60
2019-05-21T06:44:56.801Z,14.60
2019-05-21T06:47:25.389Z,14.60
2019-05-21T06:49:53.960Z,14.60
2019-05-21T06:52:22.722Z,14.60
2019-05-21T06:54:51.312Z,14.60
2019-05-21T06:57:19.891Z,14.60
2019-05-21T06:59:48.464Z,14.60
2019-05-21T07:02:17.082Z,14.60
2019-05-21T07:04:45.660Z,14.70
2019-05-21T07:07:14.255Z,14.70
2019-05-21T07:09:42.823Z,14.70
2019-05-21T07:12:11.414Z,14.70
2019-05-21T07:14:40.146Z,14.70
2019-05-21T07:17:08.819Z,14.70
2019-05-21T07:19:37.374Z,14.60
2019-05-21T07:22:12.614Z,14.60
2019-05-21T07:24:36.329Z,14.60
2019-05-21T07:27:05.007Z,14.50
2019-05-21T07:29:33.571Z,14.50
2019-05-21T07:32:02.217Z,14.60
2019-05-21T07:34:30.833Z,14.50
2019-05-21T07:36:59.412Z,14.50
2019-05-21T07:39:27.976Z,14.50
2019-05-21T07:41:56.566Z,14.50
2019-05-21T07:44:25.127Z,14.50
2019-05-21T07:46:53.723Z,14.50
2019-05-21T07:49:22.368Z,14.50
2019-05-21T07:51:50.988Z,14.50
2019-05-21T07:54:19.557Z,14.50
2019-05-21T07:56:48.120Z,14.50
2019-05-21T07:59:16.774Z,14.50
2019-05-21T08:01:45.353Z,14.50
2019-05-21T08:04:13.989Z,14.40
2019-05-21T08:06:42.639Z,14.40
2019-05-21T08:09:13.971Z,14.40
2019-05-21T08:11:41.530Z,14.40
2019-05-21T08:14:10.086Z,14.30
2019-05-21T08:16:38.652Z,14.30
2019-05-21T08:19:07.496Z,14.20
2019-05-21T08:21:36.058Z,14.20
2019-05-21T08:24:04.742Z,14.20
2019-05-21T08:26:33.290Z,14.20
2019-05-21T08:29:01.879Z,14.20
2019-05-21T08:31:30.451Z,14.20
2019-05-21T08:33:59.039Z,14.20
2019-05-21T08:36:27.790Z,14.20
2019-05-21T08:38:56.378Z,14.20
2019-05-21T08:41:24.943Z,14.20
2019-05-21T08:43:53.606Z,14.20
2019-05-21T08:46:22.175Z,14.20
2019-05-21T08:48:50.771Z,14.30
2019-05-21T08:51:19.390Z,14.30
2019-05-21T08:53:47.926Z,14.30
2019-05-21T08:56:16.495Z,14.30
2019-05-21T08:58:45.079Z,14.30
2019-05-21T09:01:13.647Z,14.30
2019-05-21T09:03:42.235Z,14.30
2019-05-21T09:06:10.804Z,14.30
2019-05-21T09:08:39.464Z,14.30
2019-05-21T09:11:08.031Z,14.20
2019-05-21T09:13:36.621Z,14.20
2019-05-21T09:16:06.026Z,14.20
2019-05-21T09:18:34.627Z,14.20
2019-05-21T09:21:03.195Z,14.20
2019-05-21T09:23:31.794Z,14.20
2019-05-21T09:26:00.365Z,14.20
2019-05-21T09:28:29.027Z,14.30
2019-05-21T09:31:01.473Z,14.30
2019-05-21T09:33:27.834Z,14.30
2019-05-21T09:35:56.403Z,14.30
2019-05-21T09:38:24.999Z,14.30
2019-05-21T09:40:53.563Z,14.30
2019-05-21T09:43:22.146Z,14.30
2019-05-21T09:45:50.720Z,14.30
2019-05-21T09:48:19.312Z,14.30
2019-05-21T09:50:47.878Z,14.40
2019-05-21T09:53:16.491Z,14.40
2019-05-21T09:55:45.159Z,14.50
2019-05-21T09:58:15.419Z,14.50
2019-05-21T10:01:03.931Z,14.50
2019-05-21T10:03:34.159Z,14.50
2019-05-21T10:06:02.744Z,14.60
2019-05-21T10:08:31.323Z,14.60
2019-05-21T10:10:59.894Z,14.70
2019-05-21T10:13:28.497Z,14.70
2019-05-21T10:16:01.185Z,14.80
2019-05-21T10:18:27.290Z,14.80
2019-05-21T10:20:55.866Z,14.90
2019-05-21T10:23:24.434Z,14.90
2019-05-21T10:25:53.038Z,14.90
2019-05-21T10:28:21.603Z,14.80
2019-05-21T10:30:50.195Z,14.80
2019-05-21T10:33:18.923Z,14.80
2019-05-21T10:35:47.487Z,14.80
2019-05-21T10:38:16.124Z,14.80
2019-05-21T10:40:44.779Z,14.80
2019-05-21T10:43:13.415Z,14.80
2019-05-21T10:45:42.075Z,14.80
2019-05-21T10:48:10.654Z,14.80
2019-05-21T10:50:39.239Z,14.80
2019-05-21T10:53:07.875Z,14.80
2019-05-21T10:55:36.467Z,14.70
2019-05-21T10:58:05.026Z,14.70
2019-05-21T11:00:33.623Z,14.60
2019-05-21T11:03:10.029Z,14.60
2019-05-21T11:05:43.212Z,14.60
2019-05-21T11:08:23.705Z,14.60
2019-05-21T11:10:42.095Z,14.60
2019-05-21T11:13:10.727Z,14.60
2019-05-21T11:15:39.396Z,14.50
2019-05-21T11:18:10.941Z,14.60
2019-05-21T11:20:38.203Z,14.50
2019-05-21T11:23:06.768Z,14.50
2019-05-21T11:25:35.355Z,14.60
2019-05-21T11:28:06.267Z,14.60
2019-05-21T11:30:34.569Z,14.60
2019-05-21T11:33:03.131Z,14.60
2019-05-21T11:35:32.809Z,14.60
2019-05-21T11:38:02.015Z,14.60
2019-05-21T11:40:30.672Z,14.60
2019-05-21T11:42:59.270Z,14.50
2019-05-21T11:45:32.185Z,14.50
2019-05-21T11:47:58.043Z,14.40
2019-05-21T11:50:26.640Z,14.40
2019-05-21T11:52:55.209Z,14.40
2019-05-21T11:55:23.803Z,14.40
2019-05-21T11:57:52.371Z,14.40
2019-05-21T12:00:23.972Z,14.40
2019-05-21T12:02:52.562Z,14.40
2019-05-21T12:05:21.136Z,14.40
2019-05-21T12:07:49.711Z,14.40
2019-05-21T12:10:18.369Z,14.40
2019-05-21T12:12:46.943Z,14.40
2019-05-21T12:15:16.790Z,14.40
2019-05-21T12:17:45.383Z,14.40
2019-05-21T12:20:14.216Z,14.40
2019-05-21T12:22:42.779Z,14.40
2019-05-21T12:25:11.610Z,14.40
2019-05-21T12:27:40.283Z,14.40
2019-05-21T12:30:09.123Z,14.40
2019-05-21T12:32:37.832Z,14.40
2019-05-21T12:35:06.831Z,14.30
2019-05-21T12:37:35.693Z,14.40
2019-05-21T12:40:06.376Z,14.30
2019-05-21T12:42:34.981Z,14.30
2019-05-21T12:45:03.636Z,14.30
2019-05-21T12:47:32.216Z,14.30
2019-05-21T12:50:00.845Z,14.30
2019-05-21T12:52:29.407Z,14.30
2019-05-21T12:54:57.989Z,14.30
2019-05-21T12:57:26.566Z,14.30
2019-05-21T12:59:55.131Z,14.30
2019-05-21T13:02:23.761Z,14.30
2019-05-21T13:04:52.322Z,14.30
2019-05-21T13:07:21.038Z,14.30
2019-05-21T13:09:49.703Z,14.30
2019-05-21T13:12:18.291Z,14.30
2019-05-21T13:14:46.853Z,14.30
2019-05-21T13:17:15.510Z,14.30
2019-05-21T13:19:44.082Z,14.30
2019-05-21T13:22:12.663Z,14.30
2019-05-21T13:24:41.239Z,14.30
2019-05-21T13:27:09.863Z,14.30
2019-05-21T13:29:38.450Z,14.30
2019-05-21T13:32:07.023Z,14.20
2019-05-21T13:34:35.587Z,14.20
2019-05-21T13:37:04.247Z,14.20
2019-05-21T13:39:48.385Z,14.30
2019-05-21T13:42:03.156Z,14.30
2019-05-21T13:44:31.698Z,14.30
2019-05-21T13:47:00.559Z,14.30
2019-05-21T13:49:29.161Z,14.30
2019-05-21T13:51:57.707Z,14.30
2019-05-21T13:54:26.274Z,14.30
2019-05-21T13:56:54.869Z,14.30
2019-05-21T13:59:23.596Z,14.30
2019-05-21T14:01:52.520Z,14.30
2019-05-21T14:04:21.219Z,14.30
2019-05-21T14:06:49.807Z,14.30
2019-05-21T14:09:18.436Z,14.40
2019-05-21T14:11:47.093Z,14.50
2019-05-21T14:14:15.659Z,14.60
2019-05-21T14:16:44.243Z,14.70
2019-05-21T14:19:12.814Z,14.80
2019-05-21T14:21:41.407Z,14.90
2019-05-21T14:24:10.035Z,15.00
2019-05-21T14:26:38.634Z,15.00
2019-05-21T14:29:07.206Z,15.00
2019-05-21T14:31:35.786Z,15.00
2019-05-21T14:34:04.954Z,15.10
2019-05-21T14:36:33.526Z,15.20
2019-05-21T14:39:05.809Z,15.30
2019-05-21T14:41:32.336Z,15.40
2019-05-21T14:44:00.895Z,15.50
2019-05-21T14:46:29.483Z,15.60
2019-05-21T14:48:58.055Z,15.70
2019-05-21T14:51:26.642Z,15.80
2019-05-21T14:53:56.845Z,15.80
2019-05-21T14:56:25.443Z,15.90
2019-05-21T14:58:54.225Z,15.90
2019-05-21T15:01:22.810Z,15.90
2019-05-21T15:03:51.413Z,15.90
2019-05-21T15:06:20.044Z,16.00
2019-05-21T15:08:48.628Z,16.00
2019-05-21T15:11:17.196Z,16.00
2019-05-21T15:13:45.792Z,16.00
2019-05-21T15:16:14.364Z,16.00
2019-05-21T15:18:42.965Z,16.00
2019-05-21T15:21:13.172Z,16.00
2019-05-21T15:23:42.444Z,16.00
2019-05-21T15:26:11.564Z,16.00
2019-05-21T15:28:40.158Z,16.10
2019-05-21T15:31:08.807Z,16.10
2019-05-21T15:33:37.469Z,16.20
2019-05-21T15:36:06.107Z,16.30
2019-05-21T15:38:49.374Z,16.40
2019-05-21T15:41:12.032Z,16.50
2019-05-21T15:43:35.210Z,16.60
2019-05-21T15:46:03.775Z,16.70
2019-05-21T15:48:32.373Z,16.80
2019-05-21T15:51:00.945Z,16.80
2019-05-21T15:53:29.531Z,16.80
2019-05-21T15:55:58.103Z,16.80
2019-05-21T15:58:27.028Z,16.70
2019-05-21T16:00:55.720Z,16.70
2019-05-21T16:03:24.319Z,16.70
2019-05-21T16:05:52.882Z,16.70
2019-05-21T16:08:21.471Z,16.70
2019-05-21T16:10:50.172Z,16.60
2019-05-21T16:13:18.704Z,16.60
2019-05-21T16:15:47.273Z,16.50
2019-05-21T16:18:15.856Z,16.50
2019-05-21T16:20:44.491Z,16.50
2019-05-21T16:23:13.168Z,16.50
2019-05-21T16:25:41.722Z,16.50
2019-05-21T16:28:10.312Z,16.40
2019-05-21T16:30:38.874Z,16.40
2019-05-21T16:33:07.545Z,16.40
2019-05-21T16:35:36.106Z,16.40
2019-05-21T16:38:04.768Z,16.40
2019-05-21T16:40:33.481Z,16.40
2019-05-21T16:43:02.094Z,16.30
2019-05-21T16:45:30.723Z,16.30
2019-05-21T16:47:59.315Z,16.30
2019-05-21T16:50:27.947Z,16.30
2019-05-21T16:52:56.620Z,16.30
2019-05-21T16:55:25.182Z,16.30
2019-05-21T16:57:56.160Z,16.30
2019-05-21T17:00:24.399Z,16.30
2019-05-21T17:02:52.995Z,16.30
2019-05-21T17:05:21.574Z,16.30
2019-05-21T17:07:50.147Z,16.30
2019-05-21T17:10:18.806Z,16.30
2019-05-21T17:12:47.375Z,16.40
2019-05-21T17:15:16.103Z,16.40
2019-05-21T17:17:44.680Z,16.60
2019-05-21T17:20:13.388Z,16.70
2019-05-21T17:22:41.971Z,16.70
2019-05-21T17:25:10.814Z,16.70
2019-05-21T17:27:39.420Z,16.70
2019-05-21T17:30:09.648Z,16.60
2019-05-21T17:32:38.294Z,16.60
2019-05-21T17:35:07.459Z,16.50
2019-05-21T17:37:36.060Z,16.40
2019-05-21T17:40:05.787Z,16.30
2019-05-21T17:42:34.423Z,16.30
2019-05-21T17:45:03.577Z,16.20
2019-05-21T17:47:32.215Z,16.10
2019-05-21T17:50:00.837Z,16.10
2019-05-21T17:52:29.651Z,16.00
2019-05-21T17:54:58.242Z,16.00
2019-05-21T17:57:26.883Z,15.90
2019-05-21T17:59:55.610Z,15.90
2019-05-21T18:02:24.252Z,15.80
2019-05-21T18:04:53.273Z,15.80
2019-05-21T18:07:21.906Z,15.70
2019-05-21T18:09:50.569Z,15.70
2019-05-21T18:12:31.549Z,15.70
2019-05-21T18:14:51.562Z,15.70
2019-05-21T18:17:21.773Z,15.70
2019-05-21T18:19:50.804Z,15.60
2019-05-21T18:22:19.633Z,15.60
2019-05-21T18:24:48.896Z,15.60
2019-05-21T18:27:18.323Z,15.50
2019-05-21T18:29:48.472Z,15.50
2019-05-21T18:32:17.709Z,15.50
2019-05-21T18:34:47.396Z,15.50
2019-05-21T18:37:16.074Z,15.40
2019-05-21T18:39:44.994Z,15.40
2019-05-21T18:42:22.281Z,15.40
2019-05-21T18:44:44.174Z,15.40
2019-05-21T18:47:12.878Z,15.40
2019-05-21T18:49:41.896Z,15.40
2019-05-21T18:52:10.863Z,15.30
2019-05-21T18:54:39.785Z,15.30
2019-05-21T18:57:08.422Z,15.30
2019-05-21T18:59:37.755Z,15.30
2019-05-21T19:02:08.295Z,15.30
2019-05-21T19:04:36.964Z,15.30
2019-05-21T19:07:05.505Z,15.30
2019-05-21T19:09:34.167Z,15.20
2019-05-21T19:12:03.289Z,15.20
2019-05-21T19:14:32.046Z,15.20
2019-05-21T19:17:00.629Z,15.20
2019-05-21T19:19:29.591Z,15.10
2019-05-21T19:21:58.238Z,15.10
2019-05-21T19:24:26.886Z,15.00
2019-05-21T19:26:55.524Z,15.00
2019-05-21T19:29:24.115Z,15.00
2019-05-21T19:31:52.935Z,14.90
2019-05-21T19:34:21.526Z,14.90
2019-05-21T19:36:50.092Z,14.90
2019-05-21T19:39:19.119Z,14.90
2019-05-21T19:41:47.708Z,14.90
2019-05-21T19:44:16.324Z,14.80
2019-05-21T19:46:44.863Z,14.80
2019-05-21T19:49:13.437Z,14.80
2019-05-21T19:51:42.038Z,14.80
2019-05-21T19:54:11.075Z,14.80
2019-05-21T19:56:39.659Z,14.80
2019-05-21T19:59:08.227Z,14.80
2019-05-21T20:01:36.815Z,14.80
2019-05-21T20:04:05.459Z,14.80
2019-05-21T20:06:34.194Z,14.70
2019-05-21T20:09:03.397Z,14.70
2019-05-21T20:11:32.722Z,14.70
2019-05-21T20:14:01.354Z,14.70
2019-05-21T20:16:30.337Z,14.70
2019-05-21T20:18:59.056Z,14.60
2019-05-21T20:21:29.184Z,14.60
2019-05-21T20:23:57.980Z,14.60
2019-05-21T20:26:28.338Z,14.60
2019-05-21T20:28:57.414Z,14.60
2019-05-21T20:31:26.003Z,14.60
2019-05-21T20:33:54.849Z,14.50
2019-05-21T20:36:23.432Z,14.50
2019-05-21T20:38:52.634Z,14.50
2019-05-21T20:41:21.731Z,14.50
2019-05-21T20:43:58.733Z,14.40
2019-05-21T20:46:20.794Z,14.40
2019-05-21T20:48:49.873Z,14.40
2019-05-21T20:51:19.087Z,14.40
2019-05-21T20:53:48.487Z,14.40
2019-05-21T20:56:17.816Z,14.40
2019-05-21T20:58:47.528Z,14.30
2019-05-21T21:01:16.395Z,14.30
2019-05-21T21:03:45.881Z,14.30
2019-05-21T21:06:14.536Z,14.30
2019-05-21T21:08:44.178Z,14.30
2019-05-21T21:11:14.127Z,14.30
2019-05-21T21:13:42.970Z,14.20
2019-05-21T21:16:11.662Z,14.20
2019-05-21T21:18:40.207Z,14.20
2019-05-21T21:21:08.876Z,14.20
2019-05-21T21:23:38.684Z,14.10
2019-05-21T21:26:08.148Z,14.10
2019-05-21T21:28:36.783Z,14.10
2019-05-21T21:31:06.024Z,14.00
2019-05-21T21:33:34.650Z,14.00
2019-05-21T21:36:03.510Z,14.00
2019-05-21T21:38:33.786Z,14.00
2019-05-21T21:41:02.691Z,13.90
2019-05-21T21:43:31.279Z,13.90
2019-05-21T21:45:59.842Z,13.90
2019-05-21T21:48:29.198Z,13.90
2019-05-21T21:50:58.806Z,13.90
2019-05-21T21:53:27.462Z,13.90
2019-05-21T21:55:56.091Z,13.90
2019-05-21T21:58:24.880Z,13.80
2019-05-21T22:01:16.291Z,13.80
2019-05-21T22:03:45.888Z,13.80
2019-05-21T22:06:17.518Z,13.80
2019-05-21T22:08:47.311Z,13.80
2019-05-21T22:11:17.290Z,13.70
2019-05-21T22:13:46.293Z,13.70
2019-05-21T22:16:14.931Z,13.60
2019-05-21T22:18:44.230Z,13.60
2019-05-21T22:21:12.801Z,13.60
2019-05-21T22:23:41.699Z,13.60
2019-05-21T22:26:10.434Z,13.60
2019-05-21T22:28:39.293Z,13.60
2019-05-21T22:31:07.854Z,13.60
2019-05-21T22:33:36.446Z,13.60
2019-05-21T22:36:05.253Z,13.60
2019-05-21T22:38:33.835Z,13.50
2019-05-21T22:41:02.492Z,13.50
2019-05-21T22:43:31.706Z,13.40
2019-05-21T22:46:00.339Z,13.40
2019-05-21T22:48:29.062Z,13.40
2019-05-21T22:50:57.698Z,13.40
2019-05-21T22:53:26.283Z,13.30
2019-05-21T22:55:54.846Z,13.30
2019-05-21T22:58:23.507Z,13.30
2019-05-21T23:00:52.915Z,13.30
2019-05-21T23:03:21.844Z,13.20
2019-05-21T23:05:50.414Z,13.30
2019-05-21T23:08:19.540Z,13.20
2019-05-21T23:10:48.103Z,13.20
2019-05-21T23:13:16.704Z,13.20
2019-05-21T23:15:46.300Z,13.20
2019-05-21T23:18:15.626Z,13.30
2019-05-21T23:20:45.202Z,13.30
2019-05-21T23:23:14.298Z,13.20
2019-05-21T23:25:43.557Z,13.20
2019-05-21T23:28:13.289Z,13.20
2019-05-21T23:30:42.126Z,13.20
2019-05-21T23:33:10.779Z,13.20
2019-05-21T23:35:40.483Z,13.10
2019-05-21T23:38:09.139Z,13.10
2019-05-21T23:40:38.454Z,13.10
2019-05-21T23:43:08.488Z,13.10
2019-05-21T23:45:37.316Z,13.10
2019-05-21T23:48:06.519Z,13.00
2019-05-21T23:50:35.163Z,13.00
2019-05-21T23:53:04.198Z,13.00
2019-05-21T23:55:33.261Z,13.00
2019-05-21T23:58:01.827Z,13.00
